Airport View

Enter AWOS ICAO identifier for current METAR.

ex. KFNL

KHQM 191813Z AUTO 29013KT 6SM HZ FEW016 BKN035 OVC065 15/11 A3026 RMK AO2 T01500106

19 Jun 2019 18:54

Frequency: 135.775

Phone: 360-538-7021

Other Area AWOS: KSHN - KOLM - KCLS - KAST

TAF KHQM 191722Z 1918/2018 29014G24KT P6SM FEW030 BKN050 OVC070 FM200600 25008KT P6SM BKN030 OVC050 FM201100 21006KT P6SM BKN015 OVC030